createdAt,value
2023-05-18T00:00:06.849Z,5.70
2023-05-18T00:02:55.325Z,5.90
2023-05-18T00:05:23.565Z,6.70
2023-05-18T00:07:51.866Z,8.30
2023-05-18T00:10:20.152Z,7.50
2023-05-18T00:12:48.316Z,7.40
2023-05-18T00:15:16.391Z,8.20
2023-05-18T00:17:45.770Z,7.40
2023-05-18T00:20:13.970Z,7.50
2023-05-18T00:22:43.130Z,5.80
2023-05-18T00:25:11.304Z,8.00
2023-05-18T00:27:39.280Z,6.80
2023-05-18T00:30:08.121Z,7.80
2023-05-18T00:32:37.400Z,10.90
2023-05-18T00:35:06.365Z,8.00
2023-05-18T00:37:34.866Z,5.10
2023-05-18T00:40:04.304Z,10.70
2023-05-18T00:42:32.643Z,6.10
2023-05-18T00:45:01.354Z,6.20
2023-05-18T00:47:29.587Z,6.30
2023-05-18T00:49:57.975Z,7.80
2023-05-18T00:52:27.237Z,4.40
2023-05-18T00:54:58.390Z,9.20
2023-05-18T00:57:28.832Z,6.90
2023-05-18T00:59:57.972Z,6.30
2023-05-18T01:02:30.457Z,7.60
2023-05-18T01:05:00.826Z,8.50
2023-05-18T01:07:29.044Z,7.10
2023-05-18T01:09:57.305Z,4.60
2023-05-18T01:12:33.274Z,4.40
2023-05-18T01:15:23.880Z,9.60
2023-05-18T01:18:18.258Z,7.80
2023-05-18T01:20:57.871Z,6.10
2023-05-18T01:24:04.110Z,7.50
2023-05-18T01:26:38.007Z,11.90
2023-05-18T01:29:13.190Z,6.70
2023-05-18T01:31:41.900Z,8.30
2023-05-18T01:34:10.151Z,7.10
2023-05-18T01:36:38.389Z,6.90
2023-05-18T01:39:06.709Z,6.90
2023-05-18T01:41:39.487Z,6.60
2023-05-18T01:44:09.824Z,7.00
2023-05-18T01:46:46.279Z,14.50
2023-05-18T01:49:21.948Z,9.90
2023-05-18T01:51:51.889Z,11.30
2023-05-18T01:54:22.779Z,8.50
2023-05-18T01:56:54.396Z,13.40
2023-05-18T01:59:24.349Z,8.90
2023-05-18T02:01:59.079Z,9.40
2023-05-18T02:04:28.360Z,8.20
2023-05-18T02:06:56.744Z,7.60
2023-05-18T02:09:25.038Z,9.20
2023-05-18T02:11:53.210Z,7.80
2023-05-18T02:14:21.439Z,7.40
2023-05-18T02:16:53.145Z,10.70
2023-05-18T02:19:22.452Z,7.70
2023-05-18T02:21:51.427Z,8.40
2023-05-18T02:24:20.169Z,8.50
2023-05-18T02:26:48.175Z,7.40
2023-05-18T02:29:16.489Z,7.90
2023-05-18T02:31:44.781Z,7.30
2023-05-18T02:34:15.428Z,12.20
2023-05-18T02:36:43.782Z,7.00
2023-05-18T02:39:12.736Z,8.30
2023-05-18T02:41:40.990Z,6.10
2023-05-18T02:44:09.062Z,6.70
2023-05-18T02:46:37.093Z,9.40
2023-05-18T02:49:07.245Z,7.70
2023-05-18T02:51:36.041Z,8.40
2023-05-18T02:54:04.996Z,6.70
2023-05-18T02:56:33.758Z,6.40
2023-05-18T02:59:24.144Z,8.20
2023-05-18T03:01:53.039Z,5.90
2023-05-18T03:04:22.236Z,4.50
2023-05-18T03:06:53.245Z,8.40
2023-05-18T03:09:22.342Z,7.30
2023-05-18T03:11:51.926Z,6.80
2023-05-18T03:14:20.291Z,6.40
2023-05-18T03:16:48.747Z,5.60
2023-05-18T03:19:17.297Z,5.90
2023-05-18T03:21:49.508Z,7.90
2023-05-18T03:24:18.379Z,7.90
2023-05-18T03:26:48.731Z,4.80
2023-05-18T03:29:16.986Z,6.40
2023-05-18T03:31:45.304Z,6.50
2023-05-18T03:34:13.912Z,5.20
2023-05-18T03:36:42.666Z,4.60
2023-05-18T03:39:11.623Z,7.20
2023-05-18T03:41:39.913Z,6.60
2023-05-18T03:44:07.912Z,7.30
2023-05-18T03:46:36.650Z,6.60
2023-05-18T03:49:07.756Z,6.40
2023-05-18T03:51:39.663Z,9.00
2023-05-18T03:54:07.715Z,8.50
2023-05-18T03:56:37.372Z,5.90
2023-05-18T03:59:06.592Z,6.10
2023-05-18T04:01:34.880Z,12.40
2023-05-18T04:04:03.022Z,4.90
2023-05-18T04:06:31.383Z,5.90
2023-05-18T04:09:04.638Z,7.90
2023-05-18T04:11:32.736Z,6.60
2023-05-18T04:14:01.304Z,5.60
2023-05-18T04:16:29.759Z,9.00
2023-05-18T04:18:57.900Z,7.20
2023-05-18T04:21:26.562Z,8.50
2023-05-18T04:23:54.899Z,4.80
2023-05-18T04:26:22.841Z,9.10
2023-05-18T04:28:52.833Z,6.80
2023-05-18T04:31:22.047Z,6.50
2023-05-18T04:33:51.536Z,7.90
2023-05-18T04:36:21.358Z,6.20
2023-05-18T04:38:51.008Z,6.30
2023-05-18T04:41:23.267Z,6.00
2023-05-18T04:43:53.904Z,5.60
2023-05-18T04:46:22.611Z,7.20
2023-05-18T04:48:50.907Z,7.80
2023-05-18T04:51:22.768Z,7.80
2023-05-18T04:53:51.768Z,8.50
2023-05-18T04:56:23.130Z,10.70
2023-05-18T04:58:51.574Z,7.20
2023-05-18T05:01:19.988Z,6.40
2023-05-18T05:03:49.734Z,6.80
2023-05-18T05:06:18.015Z,6.10
2023-05-18T05:08:46.127Z,7.70
2023-05-18T05:11:14.359Z,9.20
2023-05-18T05:13:42.533Z,8.00
2023-05-18T05:16:11.542Z,6.20
2023-05-18T05:18:39.832Z,7.40
2023-05-18T05:21:09.898Z,10.00
2023-05-18T05:23:38.241Z,9.10
2023-05-18T05:26:06.721Z,7.80
2023-05-18T05:28:35.306Z,7.20
2023-05-18T05:31:03.750Z,8.40
2023-05-18T05:33:32.274Z,7.00
2023-05-18T05:36:00.763Z,7.80
2023-05-18T05:38:29.001Z,6.10
2023-05-18T05:40:57.842Z,9.40
2023-05-18T05:43:26.508Z,9.90
2023-05-18T05:45:54.879Z,8.60
2023-05-18T05:48:23.502Z,9.00
2023-05-18T05:50:52.055Z,9.90
2023-05-18T05:53:21.013Z,7.80
2023-05-18T05:55:49.994Z,9.20
2023-05-18T05:58:19.216Z,10.80
2023-05-18T06:00:51.582Z,8.70
2023-05-18T06:03:19.951Z,7.40
2023-05-18T06:05:48.394Z,10.20
2023-05-18T06:08:18.564Z,9.80
2023-05-18T06:10:48.201Z,7.40
2023-05-18T06:13:17.178Z,9.70
2023-05-18T06:15:51.568Z,7.10
2023-05-18T06:18:19.945Z,10.10
2023-05-18T06:20:49.725Z,10.80
2023-05-18T06:23:22.887Z,7.70
2023-05-18T06:26:03.431Z,9.30
2023-05-18T06:28:54.767Z,11.60
2023-05-18T06:31:46.126Z,12.20
2023-05-18T06:34:38.029Z,11.40
2023-05-18T06:37:07.005Z,12.20
2023-05-18T06:39:35.735Z,12.70
2023-05-18T06:42:04.380Z,11.20
2023-05-18T06:44:36.099Z,11.90
2023-05-18T06:47:27.144Z,12.40
2023-05-18T06:49:55.260Z,13.30
2023-05-18T06:52:25.623Z,13.70
2023-05-18T06:54:55.295Z,12.30
2023-05-18T06:57:23.645Z,11.20
2023-05-18T06:59:53.928Z,12.10
2023-05-18T07:04:51.122Z,13.30
2023-05-18T07:07:19.237Z,9.90
2023-05-18T07:09:49.947Z,11.10
2023-05-18T07:12:18.237Z,9.10
2023-05-18T07:14:46.429Z,11.50
2023-05-18T07:17:14.568Z,13.00
2023-05-18T07:19:42.935Z,8.60
2023-05-18T07:22:11.214Z,10.60
2023-05-18T07:24:39.222Z,12.30
2023-05-18T07:27:07.359Z,10.20
2023-05-18T07:29:35.573Z,11.00
2023-05-18T07:32:04.358Z,8.70
2023-05-18T07:34:32.489Z,11.60
2023-05-18T07:37:00.779Z,9.70
2023-05-18T07:39:29.692Z,9.00
2023-05-18T07:41:58.040Z,9.10
2023-05-18T07:44:26.257Z,8.00
2023-05-18T07:46:54.517Z,7.00
2023-05-18T07:49:26.249Z,10.50
2023-05-18T07:51:54.519Z,11.00
2023-05-18T07:54:22.724Z,7.80
2023-05-18T07:56:50.703Z,12.50
2023-05-18T07:59:18.835Z,11.20
2023-05-18T08:01:49.446Z,7.20
2023-05-18T08:04:17.673Z,13.50
2023-05-18T08:06:45.752Z,8.20
2023-05-18T08:09:13.830Z,5.90
2023-05-18T08:11:45.031Z,8.20
2023-05-18T08:14:13.101Z,9.40
2023-05-18T08:16:41.426Z,9.00
2023-05-18T08:19:09.847Z,8.40
2023-05-18T08:21:37.841Z,7.40
2023-05-18T08:24:07.266Z,9.20
2023-05-18T08:26:36.393Z,12.30
2023-05-18T08:29:10.950Z,10.00
2023-05-18T08:31:41.255Z,7.90
2023-05-18T08:34:09.396Z,8.30
2023-05-18T08:36:37.914Z,11.50
2023-05-18T08:39:05.979Z,7.90
2023-05-18T08:41:39.295Z,10.50
2023-05-18T08:44:16.310Z,7.90
2023-05-18T08:46:48.472Z,9.10
2023-05-18T08:49:19.462Z,6.30
2023-05-18T08:51:54.689Z,7.20
2023-05-18T08:54:23.874Z,8.10
2023-05-18T08:56:53.333Z,6.60
2023-05-18T08:59:26.807Z,8.40
2023-05-18T09:01:55.288Z,8.00
2023-05-18T09:04:24.187Z,8.10
2023-05-18T09:06:54.605Z,6.80
2023-05-18T09:09:24.300Z,10.10
2023-05-18T09:11:53.019Z,8.60
2023-05-18T09:14:26.027Z,6.40
2023-05-18T09:16:56.100Z,7.90
2023-05-18T09:19:25.211Z,9.30
2023-05-18T09:21:53.421Z,7.50
2023-05-18T09:24:24.405Z,8.00
2023-05-18T09:26:53.839Z,9.70
2023-05-18T09:29:24.561Z,6.60
2023-05-18T09:31:54.606Z,8.40
2023-05-18T09:34:24.631Z,7.00
2023-05-18T09:36:53.122Z,6.90
2023-05-18T09:39:21.577Z,10.30
2023-05-18T09:41:57.360Z,7.60
2023-05-18T09:44:35.535Z,7.40
2023-05-18T09:47:09.367Z,8.00
2023-05-18T09:49:38.053Z,8.90
2023-05-18T09:52:09.534Z,10.60
2023-05-18T09:54:38.008Z,10.20
2023-05-18T09:57:10.137Z,6.60
2023-05-18T09:59:39.029Z,8.20
2023-05-18T10:02:08.826Z,8.60
2023-05-18T10:04:42.858Z,7.30
2023-05-18T10:07:12.781Z,9.50
2023-05-18T10:09:42.256Z,6.80
2023-05-18T10:12:11.985Z,7.00
2023-05-18T10:14:41.887Z,6.70
2023-05-18T10:17:15.645Z,6.90
2023-05-18T10:19:46.850Z,5.40
2023-05-18T10:22:20.510Z,6.60
2023-05-18T10:24:54.698Z,11.90
2023-05-18T10:27:28.516Z,6.30
2023-05-18T10:29:58.531Z,7.10
2023-05-18T10:32:30.059Z,7.40
2023-05-18T10:35:00.186Z,5.70
2023-05-18T10:37:30.898Z,8.00
2023-05-18T10:40:00.813Z,7.50
2023-05-18T10:42:31.218Z,6.80
2023-05-18T10:45:02.089Z,6.30
2023-05-18T10:47:32.384Z,6.10
2023-05-18T10:50:04.332Z,9.20
2023-05-18T10:52:33.379Z,9.30
2023-05-18T10:55:01.525Z,17.80
2023-05-18T10:57:37.264Z,12.20
2023-05-18T11:00:10.834Z,7.60
2023-05-18T11:02:42.962Z,10.80
2023-05-18T11:05:12.476Z,13.60
2023-05-18T11:07:41.739Z,10.40
2023-05-18T11:10:11.464Z,11.50
2023-05-18T11:12:41.255Z,8.70
2023-05-18T11:15:09.875Z,9.40
2023-05-18T11:17:38.141Z,16.30
2023-05-18T11:20:06.327Z,8.50
2023-05-18T11:22:51.796Z,14.30
2023-05-18T11:25:26.063Z,9.90
2023-05-18T11:28:04.945Z,9.50
2023-05-18T11:30:36.712Z,9.20
2023-05-18T11:33:09.408Z,11.90
2023-05-18T11:36:05.171Z,11.90
2023-05-18T11:38:55.589Z,8.60
2023-05-18T11:41:30.505Z,11.50
2023-05-18T11:44:21.036Z,9.20
2023-05-18T11:47:00.389Z,8.60
2023-05-18T11:49:47.503Z,10.70
2023-05-18T11:52:24.093Z,10.10
2023-05-18T11:54:53.536Z,8.60
2023-05-18T11:57:33.989Z,9.40
2023-05-18T12:00:11.811Z,10.10
2023-05-18T12:02:45.230Z,9.60
2023-05-18T12:05:14.546Z,8.80
2023-05-18T12:07:44.997Z,8.30
2023-05-18T12:10:28.518Z,14.30
2023-05-18T12:12:57.954Z,9.70
2023-05-18T12:15:28.825Z,8.70
2023-05-18T12:17:59.077Z,9.10
2023-05-18T12:20:28.403Z,12.40
2023-05-18T12:22:57.539Z,7.20
2023-05-18T12:25:28.142Z,8.50
2023-05-18T12:30:35.263Z,8.80
2023-05-18T12:33:04.907Z,8.90
2023-05-18T12:35:33.561Z,7.20
2023-05-18T12:38:02.964Z,9.40
2023-05-18T12:40:46.716Z,8.00
2023-05-18T12:45:45.257Z,10.00
2023-05-18T12:48:15.071Z,11.90
2023-05-18T12:50:48.556Z,12.80
2023-05-18T12:53:17.716Z,11.10
2023-05-18T12:55:45.853Z,13.80
2023-05-18T12:58:18.207Z,14.10
2023-05-18T13:00:49.073Z,11.40
2023-05-18T13:03:24.476Z,12.00
2023-05-18T13:06:06.992Z,16.20
2023-05-18T13:08:37.038Z,16.40
2023-05-18T13:11:13.579Z,13.20
2023-05-18T13:14:05.486Z,16.20
2023-05-18T13:16:37.522Z,12.60
2023-05-18T13:19:09.439Z,15.60
2023-05-18T13:21:37.957Z,17.50
2023-05-18T13:24:06.642Z,15.40
2023-05-18T13:26:34.839Z,14.60
2023-05-18T13:29:02.862Z,12.20
2023-05-18T13:31:30.918Z,16.20
2023-05-18T13:33:59.249Z,17.50
2023-05-18T13:36:29.974Z,13.40
2023-05-18T13:38:58.296Z,12.50
2023-05-18T13:41:26.435Z,12.00
2023-05-18T13:43:54.495Z,12.50
2023-05-18T13:46:23.303Z,12.20
2023-05-18T13:48:51.464Z,8.70
2023-05-18T13:51:19.637Z,7.90
2023-05-18T13:53:47.767Z,9.90
2023-05-18T13:56:16.490Z,7.00
2023-05-18T13:58:45.000Z,5.30
2023-05-18T14:01:14.419Z,6.00
2023-05-18T14:03:42.863Z,7.40
2023-05-18T14:06:11.183Z,5.40
2023-05-18T14:08:39.405Z,7.40
2023-05-18T14:11:07.674Z,5.80
2023-05-18T14:13:35.862Z,5.10
2023-05-18T14:16:04.534Z,6.60
2023-05-18T14:18:32.543Z,7.40
2023-05-18T14:21:02.453Z,4.40
2023-05-18T14:23:30.611Z,7.60
2023-05-18T14:25:58.801Z,4.80
2023-05-18T14:28:26.814Z,5.70
2023-05-18T14:30:54.810Z,6.70
2023-05-18T14:33:23.097Z,6.20
2023-05-18T14:35:51.275Z,5.80
2023-05-18T14:38:19.516Z,3.70
2023-05-18T14:40:47.608Z,6.90
2023-05-18T14:43:15.982Z,6.40
2023-05-18T14:45:48.327Z,6.00
2023-05-18T14:48:21.958Z,8.70
2023-05-18T14:50:50.135Z,4.90
2023-05-18T14:53:18.276Z,8.10
2023-05-18T14:55:46.744Z,7.50
2023-05-18T14:58:15.269Z,4.90
2023-05-18T15:00:43.695Z,6.80
2023-05-18T15:03:12.143Z,6.20
2023-05-18T15:05:40.589Z,5.60
2023-05-18T15:08:08.996Z,4.50
2023-05-18T15:10:37.163Z,4.80
2023-05-18T15:13:05.332Z,4.90
2023-05-18T15:15:33.858Z,6.10
2023-05-18T15:18:02.350Z,6.00
2023-05-18T15:20:30.960Z,5.30
2023-05-18T15:22:59.827Z,3.70
2023-05-18T15:25:30.041Z,3.40
2023-05-18T15:27:58.111Z,5.60
2023-05-18T15:30:28.971Z,3.90
2023-05-18T15:32:57.814Z,4.00
2023-05-18T15:35:25.970Z,5.40
2023-05-18T15:37:54.141Z,6.00
2023-05-18T15:40:22.237Z,5.00
2023-05-18T15:42:50.672Z,5.50
2023-05-18T15:45:18.868Z,5.90
2023-05-18T15:47:47.408Z,5.70
2023-05-18T15:50:15.737Z,4.30
2023-05-18T15:52:44.618Z,5.30
2023-05-18T15:55:12.793Z,4.70
2023-05-18T15:57:41.068Z,3.30
2023-05-18T16:00:09.827Z,3.60
2023-05-18T16:02:40.495Z,5.00
2023-05-18T16:05:08.944Z,3.50
2023-05-18T16:07:37.708Z,3.90
2023-05-18T16:10:06.677Z,4.50
2023-05-18T16:12:34.713Z,3.40
2023-05-18T16:15:02.743Z,9.30
2023-05-18T16:17:31.824Z,3.90
2023-05-18T16:20:01.937Z,5.20
2023-05-18T16:22:31.530Z,4.80
2023-05-18T16:24:59.692Z,4.50
2023-05-18T16:27:28.317Z,4.80
2023-05-18T16:29:56.382Z,2.80
2023-05-18T16:32:24.899Z,3.90
2023-05-18T16:34:53.447Z,3.30
2023-05-18T16:37:21.754Z,5.00
2023-05-18T16:39:49.863Z,9.90
2023-05-18T16:42:19.546Z,6.20
2023-05-18T16:44:47.540Z,5.00
2023-05-18T16:47:16.030Z,4.90
2023-05-18T16:49:45.653Z,6.20
2023-05-18T16:52:15.932Z,6.50
2023-05-18T16:54:45.100Z,6.30
2023-05-18T16:57:13.732Z,4.70
2023-05-18T16:59:42.735Z,5.50
2023-05-18T17:02:13.477Z,3.80
2023-05-18T17:04:42.910Z,6.70
2023-05-18T17:07:12.571Z,3.30
2023-05-18T17:09:42.920Z,2.90
2023-05-18T17:12:12.013Z,5.00
2023-05-18T17:14:40.375Z,4.20
2023-05-18T17:17:08.796Z,3.60
2023-05-18T17:19:38.903Z,4.00
2023-05-18T17:22:09.569Z,4.70
2023-05-18T17:27:07.288Z,3.40
2023-05-18T17:29:35.542Z,5.30
2023-05-18T17:32:04.477Z,4.20
2023-05-18T17:34:32.668Z,5.10
2023-05-18T17:37:00.797Z,4.30
2023-05-18T17:39:28.878Z,5.30
2023-05-18T17:41:57.863Z,4.60
2023-05-18T17:44:26.665Z,5.80
2023-05-18T17:46:55.010Z,5.70
2023-05-18T17:49:23.302Z,6.30
2023-05-18T17:51:52.622Z,3.60
2023-05-18T17:54:20.746Z,5.40
2023-05-18T17:56:48.962Z,4.00
2023-05-18T17:59:17.394Z,2.70
2023-05-18T18:01:45.929Z,5.00
2023-05-18T18:04:14.444Z,3.70
2023-05-18T18:06:43.503Z,3.40
2023-05-18T18:09:11.991Z,5.90
2023-05-18T18:11:40.204Z,3.50
2023-05-18T18:14:08.349Z,4.20
2023-05-18T18:16:36.646Z,3.10
2023-05-18T18:19:05.366Z,4.90
2023-05-18T18:21:33.566Z,2.20
2023-05-18T18:24:02.914Z,4.80
2023-05-18T18:26:31.243Z,4.30
2023-05-18T18:28:59.645Z,2.90
2023-05-18T18:31:27.883Z,6.80
2023-05-18T18:33:56.383Z,3.50
2023-05-18T18:36:26.411Z,3.20
2023-05-18T18:38:54.806Z,5.00
2023-05-18T18:41:23.185Z,5.80
2023-05-18T18:43:54.280Z,2.90
2023-05-18T18:46:22.505Z,5.20
2023-05-18T18:48:50.761Z,6.00
2023-05-18T18:51:18.927Z,4.00
2023-05-18T18:53:47.150Z,4.60
2023-05-18T18:56:15.584Z,5.40
2023-05-18T18:58:43.963Z,5.10
2023-05-18T19:01:12.383Z,6.20
2023-05-18T19:03:40.527Z,8.80
2023-05-18T19:06:08.760Z,6.50
2023-05-18T19:08:37.185Z,5.80
2023-05-18T19:11:05.449Z,3.70
2023-05-18T19:13:33.622Z,5.40
2023-05-18T19:16:02.052Z,4.80
2023-05-18T19:18:30.150Z,5.80
2023-05-18T19:21:01.417Z,8.10
2023-05-18T19:23:30.304Z,6.20
2023-05-18T19:25:59.659Z,5.20
2023-05-18T19:28:27.662Z,4.80
2023-05-18T19:30:56.004Z,7.00
2023-05-18T19:33:24.090Z,5.40
2023-05-18T19:35:54.668Z,7.70
2023-05-18T19:38:22.663Z,4.60
2023-05-18T19:40:51.052Z,7.40
2023-05-18T19:43:19.287Z,4.00
2023-05-18T19:45:49.923Z,5.60
2023-05-18T19:48:18.311Z,5.70
2023-05-18T19:50:46.389Z,7.00
2023-05-18T19:53:14.742Z,6.50
2023-05-18T19:55:42.931Z,7.90
2023-05-18T19:58:11.193Z,6.70
2023-05-18T20:00:41.525Z,19.10
2023-05-18T20:03:09.765Z,9.20
2023-05-18T20:05:38.620Z,9.70
2023-05-18T20:08:08.444Z,5.70
2023-05-18T20:10:36.701Z,7.50
2023-05-18T20:13:04.855Z,8.20
2023-05-18T20:15:37.256Z,7.30
2023-05-18T20:18:06.930Z,9.20
2023-05-18T20:20:36.239Z,9.00
2023-05-18T20:23:07.591Z,17.70
2023-05-18T20:25:36.571Z,11.20
2023-05-18T20:28:08.072Z,10.20
2023-05-18T20:30:36.721Z,8.50
2023-05-18T20:33:05.415Z,6.60
2023-05-18T20:35:34.664Z,5.90
2023-05-18T20:38:03.828Z,28.00
2023-05-18T20:40:32.343Z,13.00
2023-05-18T20:43:01.260Z,6.40
2023-05-18T20:45:30.056Z,9.60
2023-05-18T20:48:00.106Z,6.30
2023-05-18T20:50:28.653Z,7.60
2023-05-18T20:52:56.692Z,11.10
2023-05-18T20:55:25.003Z,6.20
2023-05-18T20:57:53.158Z,9.30
2023-05-18T21:00:21.858Z,9.30
2023-05-18T21:02:50.129Z,11.90
2023-05-18T21:05:18.953Z,9.30
2023-05-18T21:07:47.141Z,9.00
2023-05-18T21:10:15.259Z,30.40
2023-05-18T21:12:43.860Z,10.20
2023-05-18T21:15:11.862Z,8.50
2023-05-18T21:17:39.833Z,7.90
2023-05-18T21:20:09.978Z,27.50
2023-05-18T21:22:37.917Z,27.30
2023-05-18T21:25:06.956Z,49.00
2023-05-18T21:27:37.219Z,37.00
2023-05-18T21:30:05.940Z,11.60
2023-05-18T21:32:34.299Z,8.40
2023-05-18T21:35:04.450Z,7.30
2023-05-18T21:37:32.563Z,6.10
2023-05-18T21:40:01.479Z,9.50
2023-05-18T21:42:29.500Z,10.90
2023-05-18T21:44:57.573Z,8.60
2023-05-18T21:47:25.901Z,10.70
2023-05-18T21:49:54.053Z,6.50
2023-05-18T21:52:22.350Z,10.70
2023-05-18T21:54:50.706Z,8.40
2023-05-18T21:57:18.761Z,7.80
2023-05-18T21:59:46.912Z,8.50
2023-05-18T22:02:15.257Z,9.10
2023-05-18T22:04:43.539Z,7.00
2023-05-18T22:07:13.963Z,11.70
2023-05-18T22:09:42.106Z,7.20
2023-05-18T22:12:10.318Z,9.20
2023-05-18T22:14:38.452Z,10.10
2023-05-18T22:17:06.508Z,6.60
2023-05-18T22:19:34.753Z,6.20
2023-05-18T22:22:02.748Z,7.70
2023-05-18T22:24:30.952Z,8.10
2023-05-18T22:26:58.912Z,10.40
2023-05-18T22:29:27.150Z,5.60
2023-05-18T22:31:55.199Z,6.70
2023-05-18T22:34:23.556Z,7.40
2023-05-18T22:36:51.596Z,10.50
2023-05-18T22:39:19.625Z,12.00
2023-05-18T22:41:47.790Z,9.50
2023-05-18T22:44:16.054Z,10.40
2023-05-18T22:46:45.090Z,9.00
2023-05-18T22:49:13.701Z,15.60
2023-05-18T22:51:41.825Z,10.90
2023-05-18T22:54:09.862Z,8.70
2023-05-18T22:56:37.815Z,11.50
2023-05-18T22:59:07.339Z,10.50
2023-05-18T23:01:37.943Z,11.30
2023-05-18T23:04:06.635Z,11.50
2023-05-18T23:06:35.053Z,11.90
2023-05-18T23:09:03.072Z,11.00
2023-05-18T23:11:31.149Z,13.20
2023-05-18T23:14:02.756Z,12.50
2023-05-18T23:16:30.866Z,14.20
2023-05-18T23:19:01.822Z,13.70
2023-05-18T23:21:31.661Z,15.60
2023-05-18T23:23:59.912Z,13.90
2023-05-18T23:26:28.215Z,14.70
2023-05-18T23:28:56.984Z,11.50
2023-05-18T23:31:25.133Z,14.20
2023-05-18T23:33:53.867Z,16.90
2023-05-18T23:36:27.508Z,19.30
2023-05-18T23:39:01.041Z,14.20
2023-05-18T23:41:31.355Z,14.60
2023-05-18T23:44:00.066Z,15.30
2023-05-18T23:46:28.477Z,17.40
2023-05-18T23:48:59.892Z,16.60
2023-05-18T23:51:32.197Z,12.80
2023-05-18T23:54:01.052Z,11.80
2023-05-18T23:56:29.558Z,19.20
2023-05-18T23:58:58.724Z,13.10
